Terminal Aerodrome Forecast
Issued by NWS

Home | Current Version | Previous Version | Text Only | Print | Product List | Glossary On
Versions: 1 2 3 4 5 6 7 8 9 10 11 12 13 14 15 16 17 18 19 20 21 22
000
FTUS41 KBUF 282300
TAFIAG
TAF
KIAG 282332Z 2900/2924 24007KT P6SM BKN050 BKN230
     FM290200 27008KT P6SM BKN250
     FM291200 31006KT P6SM BKN035
     FM291500 35009KT P6SM BKN035
     FM291800 33008KT P6SM OVC130
     FM291900 33008KT P6SM OVC120
     FM292300 VRB03KT P6SM BKN120=

USA.gov is the U.S. government's official web portal to all federal, state and local government web resources and services.